Autostar — CQQC — position and weather

sailwx.info

Track history (hours):
 
Tides and Currents Weather Stations Pressure Air Temp Water Temp Dewpoint Dewpoint Depression Visibility Wind Speed Wind Dir Waves Ship Positions

Autostar

Last reported at 2018-Apr-19 11:29 UTC. Time now 2018-Apr-19 11:50 UTC.
Position N 51°20' E 003°13'.

Length 140 m; draft 6.3 m.

Type: Cargo ship. MMSI: 255801540.

Date/timePositionNaut miles runAvg speedWind from/ knotsBaromVisibWave heightAir tempDewpointWater temp
2018-Apr-19 11:29N 51°20' E 003°13'0 0.0
2018-Apr-19 10:59N 51°20' E 003°13'0 0.0
2018-Apr-19 10:29N 51°20' E 003°13'0 0.0
2018-Apr-19 09:59N 51°20' E 003°13'0 0.0
2018-Apr-19 09:29N 51°20' E 003°13'0 0.0
2018-Apr-19 08:59N 51°20' E 003°13'0 0.0
2018-Apr-19 08:29N 51°20' E 003°13'0 0.0
2018-Apr-19 07:59N 51°20' E 003°13'0 0.0
2018-Apr-19 07:29N 51°20' E 003°13'0 0.0
2018-Apr-19 06:59N 51°20' E 003°13'0 0.0
2018-Apr-19 06:29N 51°20' E 003°13'0 0.0
2018-Apr-19 05:59N 51°20' E 003°13'0 0.0
2018-Apr-19 05:29N 51°20' E 003°13'0 0.0
2018-Apr-19 04:58N 51°20' E 003°13'0 0.0
2018-Apr-19 04:28N 51°20' E 003°13'0 0.0
2018-Apr-19 03:58N 51°20' E 003°13'0 0.0
2018-Apr-19 03:28N 51°20' E 003°13'0 0.0
2018-Apr-19 02:58N 51°20' E 003°13'0 0.0
2018-Apr-19 02:28N 51°20' E 003°13'0 0.0
2018-Apr-19 01:59N 51°20' E 003°13'0 0.0
2018-Apr-19 01:28N 51°20' E 003°13'0 0.0
2018-Apr-19 00:58N 51°20' E 003°13'0 0.0
2018-Apr-19 00:28N 51°20' E 003°13'0 0.0
2018-Apr-18 23:58N 51°19' E 003°13'0 0.0
2018-Apr-18 23:28N 51°20' E 003°13'0 0.0
2018-Apr-18 22:58N 51°20' E 003°13'0 0.0
2018-Apr-18 22:28N 51°20' E 003°13'0 0.0
2018-Apr-18 21:58N 51°20' E 003°13'0 0.0
2018-Apr-18 21:28N 51°20' E 003°13'0 0.0
2018-Apr-18 20:58N 51°20' E 003°13'0 0.0
2018-Apr-18 20:28N 51°20' E 003°13'0 0.0
2018-Apr-18 19:58N 51°20' E 003°13'0 0.0
2018-Apr-18 19:28N 51°20' E 003°13'0 0.0
2018-Apr-18 18:58N 51°20' E 003°13'0 0.0
2018-Apr-18 18:28N 51°20' E 003°13'0 0.0
2018-Apr-18 17:58N 51°20' E 003°13'0 0.0
2018-Apr-18 17:28N 51°20' E 003°13'0 0.0
2018-Apr-18 16:58N 51°20' E 003°13'0 0.0
2018-Apr-18 16:28N 51°20' E 003°13'0 0.0
2018-Apr-18 15:58N 51°20' E 003°13'0 0.0
2018-Apr-18 15:28N 51°20' E 003°13'0 0.3
2018-Apr-18 14:58N 51°19' E 003°13'0 0.1
2018-Apr-18 14:28N 51°19' E 003°13'0 0.0
2018-Apr-18 13:58N 51°19' E 003°13'0 0.0
2018-Apr-18 13:28N 51°19' E 003°13'0 0.0
2018-Apr-18 12:58N 51°19' E 003°13'0 0.0
2018-Apr-18 12:28N 51°19' E 003°13'0 0.0
2018-Apr-18 11:58N 51°19' E 003°13'0 0.0
2018-Apr-18 11:28N 51°19' E 003°13'0 0.0
2018-Apr-18 10:58N 51°19' E 003°13'0 0.0
2018-Apr-18 10:28N 51°19' E 003°13'0 0.0
2018-Apr-18 09:58N 51°19' E 003°13'0 0.0
2018-Apr-18 09:28N 51°19' E 003°13'0 0.0
2018-Apr-18 08:58N 51°19' E 003°13'0 0.0
2018-Apr-18 08:28N 51°19' E 003°13'0 0.0
2018-Apr-18 07:58N 51°19' E 003°13'0 0.0
2018-Apr-18 07:28N 51°19' E 003°13'0 0.0
2018-Apr-18 06:58N 51°19' E 003°13'0 0.0
2018-Apr-18 06:28N 51°19' E 003°13'0 0.0
2018-Apr-18 05:58N 51°19' E 003°13'0 0.0
2018-Apr-18 05:31N 51°19' E 003°13'1 1.6
2018-Apr-18 05:01N 51°20' E 003°13'1 1.7
2018-Apr-18 04:30N 51°21' E 003°12'815.3
2018-Apr-18 04:00N 51°25' E 003°02'916.1
2018-Apr-18 03:26N 51°30' E 002°50'714.0
2018-Apr-18 02:56N 51°35' E 002°42'511.2
2018-Apr-18 02:29N 51°40' E 002°39'4 8.6
2018-Apr-18 01:59N 51°44' E 002°38'5 8.7
2018-Apr-18 01:28N 51°49' E 002°36'12910.3
2018-Apr-17 12:58N 53°30' E 004°46'511.8
2018-Apr-17 12:30N 53°32' E 004°55'611.1
2018-Apr-17 12:00N 53°34' E 005°03'10010.8
2018-Apr-17 02:45N 53°53' E 007°49'413.1
2018-Apr-17 02:27N 53°52' E 007°56'920.7
2018-Apr-17 02:00N 53°47' E 008°09'1020.5
2018-Apr-17 01:30N 53°41' E 008°22'816.2
2018-Apr-17 01:00N 53°35' E 008°32'2 3.6
2018-Apr-17 00:30N 53°33' E 008°34'0 0.4
2018-Apr-16 23:59N 53°34' E 008°33'1 2.2
2018-Apr-16 23:29N 53°35' E 008°33'0 0.0
2018-Apr-16 22:59N 53°35' E 008°33'0 0.0
2018-Apr-16 22:29N 53°35' E 008°33'0 0.0
2018-Apr-16 21:59N 53°35' E 008°33'0 0.0
2018-Apr-16 21:29N 53°35' E 008°33'0 0.0
2018-Apr-16 20:59N 53°35' E 008°33'0 0.0
2018-Apr-16 20:29N 53°35' E 008°33'0 0.0
2018-Apr-16 19:59N 53°35' E 008°33'0 0.0
2018-Apr-16 19:29N 53°35' E 008°33'0 0.0
2018-Apr-16 18:59N 53°35' E 008°33'0 0.0
2018-Apr-16 18:29N 53°35' E 008°33'0 0.0
2018-Apr-16 17:59N 53°35' E 008°33'0 0.0
2018-Apr-16 17:29N 53°35' E 008°33'0 0.0
2018-Apr-16 16:59N 53°35' E 008°33'0 0.0
2018-Apr-16 16:29N 53°35' E 008°33'0 0.0
2018-Apr-16 15:59N 53°35' E 008°33'0 0.0
2018-Apr-16 15:29N 53°35' E 008°33'0 0.0
2018-Apr-16 14:59N 53°35' E 008°33'0 0.0
2018-Apr-16 14:29N 53°35' E 008°33'0 0.0
2018-Apr-16 13:59N 53°35' E 008°33'0 0.0
2018-Apr-16 13:29N 53°35' E 008°33'0 0.0
2018-Apr-16 12:59N 53°35' E 008°33'0 0.0
2018-Apr-16 12:29N 53°35' E 008°33'0 0.0
2018-Apr-16 11:59N 53°35' E 008°33'0 0.0
2018-Apr-16 11:29N 53°35' E 008°33'0 0.0
2018-Apr-16 10:59N 53°35' E 008°33'0 0.0
2018-Apr-16 10:29N 53°35' E 008°33'0 0.0
2018-Apr-16 09:59N 53°35' E 008°33'1 1.2
2018-Apr-16 09:30N 53°34' E 008°33'0 0.3
2018-Apr-16 09:00N 53°34' E 008°33'4 7.8
2018-Apr-16 08:30N 53°37' E 008°29'1019.5
2018-Apr-16 08:00N 53°43' E 008°16'1020.2
2018-Apr-16 07:30N 53°50' E 008°04'917.4
2018-Apr-16 06:59N 53°52' E 007°49'1516.1
2018-Apr-16 06:02N 54°04' E 007°32'016.8
2018-Apr-16 06:00N 54°04' E 007°32'4616.2
2018-Apr-16 03:12N 54°50' E 007°23'316.1
2018-Apr-16 03:00N 54°53' E 007°23'816.1
2018-Apr-16 02:30N 55°01' E 007°22'816.0
2018-Apr-16 02:01N 55°09' E 007°22'816.0
2018-Apr-16 01:30N 55°17' E 007°22'816.1
2018-Apr-16 01:01N 55°25' E 007°21'816.3
2018-Apr-16 00:30N 55°33' E 007°21'816.4
2018-Apr-16 00:00N 55°41' E 007°23'816.7
2018-Apr-15 23:30N 55°49' E 007°27'16016.0
2018-Apr-15 13:31N 57°50' E 010°38'017.9
2018-Apr-15 13:30N 57°50' E 010°39'917.9
2018-Apr-15 13:01N 57°46' E 010°54'918.9
2018-Apr-15 12:30N 57°39' E 011°06'919.0
2018-Apr-15 12:00N 57°32' E 011°19'918.6
2018-Apr-15 11:30N 57°25' E 011°29'918.9
2018-Apr-15 11:01N 57°16' E 011°35'1019.1
2018-Apr-15 10:30N 57°07' E 011°41'6317.6
2018-Apr-15 06:55N 56°09' E 012°28'818.6
2018-Apr-15 06:30N 56°04' E 012°38'816.3
2018-Apr-15 06:00N 55°57' E 012°44'917.7
2018-Apr-15 05:31N 55°48' E 012°43'816.5
2018-Apr-15 05:01N 55°40' E 012°42'612.6
2018-Apr-15 04:30N 55°33' E 012°42'713.9
2018-Apr-15 04:00N 55°26' E 012°42'815.5
2018-Apr-15 03:30N 55°19' E 012°41'816.2
2018-Apr-15 03:00N 55°16' E 012°54'917.8
2018-Apr-15 02:30N 55°15' E 013°09'2419.2
2018-Apr-15 01:17N 55°13' E 013°51'519.0
2018-Apr-15 01:00N 55°13' E 013°59'1019.0
2018-Apr-15 00:29N 55°13' E 014°17'918.9
2018-Apr-15 00:00N 55°20' E 014°27'918.4
2018-Apr-14 23:30N 55°27' E 014°37'1118.8
2018-Apr-14 22:55N 55°32' E 014°54'818.9
2018-Apr-14 22:29N 55°36' E 015°07'918.9
2018-Apr-14 22:00N 55°41' E 015°21'919.0
2018-Apr-14 21:30N 55°46' E 015°35'1019.0
2018-Apr-14 21:01N 55°51' E 015°50'1019.0
2018-Apr-14 20:30N 55°55' E 016°04'919.0
2018-Apr-14 20:01N 56°00' E 016°19'1018.9
2018-Apr-14 19:30N 56°05' E 016°34'917.9
2018-Apr-14 19:00N 56°11' E 016°45'1018.9
2018-Apr-14 18:30N 56°20' E 016°52'15319.0
2018-Apr-14 10:26N 58°38' E 018°55'2118.8
2018-Apr-14 09:18N 58°56' E 019°16'718.8
2018-Apr-14 08:55N 59°03' E 019°23'918.6
2018-Apr-14 08:26N 59°10' E 019°32'819.2
2018-Apr-14 08:00N 59°17' E 019°41'1019.4
2018-Apr-14 07:31N 59°26' E 019°51'918.6
2018-Apr-14 07:01N 59°34' E 019°57'918.2
2018-Apr-14 06:29N 59°42' E 019°47'918.9
2018-Apr-14 06:00N 59°49' E 019°36'918.8
2018-Apr-14 05:30N 59°56' E 019°23'918.9
2018-Apr-14 05:00N 60°03' E 019°11'918.6
2018-Apr-14 04:30N 60°11' E 019°01'1019.0
2018-Apr-14 04:00N 60°21' E 018°60'1116.5
2018-Apr-14 03:19N 60°32' E 019°06'819.1
2018-Apr-14 02:54N 60°35' E 019°20'73 3.4
2018-Apr-13 05:17N 60°18' E 021°45'618.2
2018-Apr-13 04:58N 60°12' E 021°43'612.5
2018-Apr-13 04:30N 60°06' E 021°41'918.0
2018-Apr-13 04:00N 59°58' E 021°41'918.8
2018-Apr-13 03:30N 59°52' E 021°26'815.1
2018-Apr-13 03:00N 59°44' E 021°21'612.8
2018-Apr-13 02:30N 59°38' E 021°22'714.7
2018-Apr-13 02:00N 59°36' E 021°36'715.0
2018-Apr-13 01:30N 59°34' E 021°50'815.4
2018-Apr-13 00:58N 59°31' E 022°06'715.9
2018-Apr-13 00:30N 59°29' E 022°20'815.9
2018-Apr-13 00:00N 59°31' E 022°35'815.9
2018-Apr-12 23:30N 59°33' E 022°50'816.0
2018-Apr-12 23:00N 59°35' E 023°05'816.5
2018-Apr-12 22:30N 59°37' E 023°21'1516.8
2018-Apr-12 21:37N 59°42' E 023°49'216.9
2018-Apr-12 21:29N 59°43' E 023°54'1316.8
2018-Apr-12 20:42N 59°46' E 024°18'316.7
2018-Apr-12 20:30N 59°47' E 024°25'816.5
2018-Apr-12 20:00N 59°49' E 024°41'816.6
2018-Apr-12 19:31N 59°50' E 024°57'816.5
2018-Apr-12 19:00N 59°52' E 025°13'816.5
2018-Apr-12 18:30N 59°53' E 025°29'1016.3
2018-Apr-12 17:54N 59°55' E 025°48'1216.4
2018-Apr-12 17:10N 59°59' E 026°12'216.2
2018-Apr-12 17:01N 59°59' E 026°17'816.4
2018-Apr-12 16:31N 60°01' E 026°33'816.3
2018-Apr-12 16:00N 60°00' E 026°49'816.0
2018-Apr-12 15:31N 59°60' E 027°05'816.1
2018-Apr-12 15:01N 60°04' E 027°19'816.3
2018-Apr-12 14:31N 60°08' E 027°33'816.1
2018-Apr-12 14:01N 60°12' E 027°47'816.4
2018-Apr-12 13:31N 60°10' E 028°03'816.3
2018-Apr-12 13:00N 60°07' E 028°18'815.9
2018-Apr-12 12:31N 60°03' E 028°32'915.7
2018-Apr-12 11:55N 60°03' E 028°51'716.0
2018-Apr-12 11:30N 60°03' E 029°04'1813.1
2018-Apr-12 10:08N 59°60' E 029°39'510.5
2018-Apr-12 09:41N 59°58' E 029°48'210.5
2018-Apr-12 09:29N 59°57' E 029°51'510.9
2018-Apr-12 09:00N 59°55' E 030°01'5 9.3
2018-Apr-12 08:30N 59°53' E 030°10'2 4.3
2018-Apr-12 08:00N 59°53' E 030°14'0 0.0
2018-Apr-12 07:29N 59°53' E 030°14'0 0.0
2018-Apr-12 06:59N 59°53' E 030°14'0 0.0
2018-Apr-12 06:29N 59°53' E 030°14'0 0.0
2018-Apr-12 05:59N 59°53' E 030°14'0 0.0
2018-Apr-12 05:29N 59°53' E 030°14'0 0.0
2018-Apr-12 04:56N 59°53' E 030°14'0 0.0
2018-Apr-12 04:23N 59°53' E 030°14'0 0.0
2018-Apr-12 03:59N 59°53' E 030°14'0 0.0
2018-Apr-12 03:29N 59°53' E 030°14'0 0.0
2018-Apr-12 02:53N 59°53' E 030°14'0 0.0
2018-Apr-12 02:29N 59°53' E 030°14'0 0.0
2018-Apr-12 01:53N 59°53' E 030°14'0 0.0
2018-Apr-12 01:29N 59°53' E 030°14'0 0.0
2018-Apr-12 00:53N 59°53' E 030°14'0 0.3
2018-Apr-12 00:28N 59°54' E 030°14'0 0.0
2018-Apr-12 00:00N 59°54' E 030°14'0 0.0
2018-Apr-11 23:31N 59°54' E 030°14'0 0.0
2018-Apr-11 23:00N 59°54' E 030°14'0 0.0
2018-Apr-11 22:30N 59°54' E 030°14'0 0.0
2018-Apr-11 22:01N 59°54' E 030°14'0 0.0
2018-Apr-11 21:31N 59°54' E 030°14'0 0.0
2018-Apr-11 20:59N 59°54' E 030°14'0 0.0
2018-Apr-11 20:29N 59°54' E 030°14'0 0.0
2018-Apr-11 19:59N 59°54' E 030°14'0 0.0
2018-Apr-11 19:31N 59°54' E 030°14'0 0.0
2018-Apr-11 19:00N 59°54' E 030°14'0 0.0
2018-Apr-11 18:31N 59°54' E 030°14'0 0.0
2018-Apr-11 18:00N 59°54' E 030°14'0 0.0
2018-Apr-11 17:30N 59°54' E 030°14'0 0.0
2018-Apr-11 17:00N 59°54' E 030°14'0 0.0
2018-Apr-11 16:30N 59°54' E 030°14'0 0.0
2018-Apr-11 16:00N 59°54' E 030°14'0 0.0
2018-Apr-11 15:31N 59°54' E 030°14'1 1.5
2018-Apr-11 15:00N 59°53' E 030°13'3 6.4
2018-Apr-11 14:30N 59°54' E 030°07'5 9.6
2018-Apr-11 14:00N 59°56' E 029°58'611.1
2018-Apr-11 13:31N 59°58' E 029°47'610.1
2018-Apr-11 12:55N 60°00' E 029°36'22 7.9
2018-Apr-11 10:07N 60°02' E 028°52'316.9
2018-Apr-11 09:56N 60°02' E 028°46'717.3
2018-Apr-11 09:30N 60°02' E 028°31'816.8
2018-Apr-11 09:01N 60°06' E 028°17'917.3
2018-Apr-11 08:31N 60°09' E 028°00'816.6
2018-Apr-11 08:00N 60°09' E 027°43'917.8
2018-Apr-11 07:31N 60°05' E 027°28'917.9
2018-Apr-11 07:00N 60°00' E 027°13'916.8
2018-Apr-11 06:29N 59°58' E 026°56'918.0
2018-Apr-11 06:00N 59°60' E 026°39'714.9
2018-Apr-11 05:31N 60°02' E 026°25'816.9
2018-Apr-11 05:01N 60°11' E 026°22'816.4
2018-Apr-11 04:30N 60°17' E 026°32'1019.2
2018-Apr-11 04:00N 60°23' E 026°48'714.6
2018-Apr-11 03:30N 60°28' E 026°58'1 2.4
2018-Apr-11 03:01N 60°29' E 026°57'4 8.8
2018-Apr-11 02:31N 60°25' E 026°55'918.2
2018-Apr-11 02:00N 60°21' E 026°38'917.6
2018-Apr-11 01:31N 60°14' E 026°26'816.7
2018-Apr-11 01:00N 60°08' E 026°16'1019.4
2018-Apr-11 00:30N 60°00' E 026°03'2518.6
2018-Apr-10 23:10N 59°49' E 025°19'319.7
2018-Apr-10 23:00N 59°48' E 025°12'919.4
2018-Apr-10 22:30N 59°46' E 024°54'1019.4
2018-Apr-10 22:01N 59°44' E 024°35'1019.3
2018-Apr-10 21:30N 59°42' E 024°17'1119.4
2018-Apr-10 20:57N 59°39' E 023°57'919.7
2018-Apr-10 20:30N 59°36' E 023°40'1019.8
2018-Apr-10 20:00N 59°33' E 023°21'1019.6
2018-Apr-10 19:30N 59°30' E 023°03'30018.3
2018-Apr-10 03:06N 54°60' E 019°02'319.3
2018-Apr-10 02:58N 54°57' E 019°02'919.0
2018-Apr-10 02:30N 54°48' E 018°60'1019.2
2018-Apr-10 02:01N 54°39' E 018°57'918.4
2018-Apr-10 01:31N 54°32' E 018°47'815.2
2018-Apr-10 01:00N 54°32' E 018°33'2 3.8
2018-Apr-10 00:30N 54°33' E 018°30'0 0.0
2018-Apr-10 00:00N 54°33' E 018°30'0 0.0
2018-Apr-09 23:30N 54°33' E 018°30'0 0.0
2018-Apr-09 23:00N 54°33' E 018°30'0 0.0
2018-Apr-09 22:30N 54°33' E 018°30'0 0.0
2018-Apr-09 22:00N 54°33' E 018°30'0 0.0
2018-Apr-09 21:30N 54°33' E 018°30'0 0.0
2018-Apr-09 21:00N 54°33' E 018°30'0 0.0
2018-Apr-09 20:30N 54°33' E 018°30'0 0.0
2018-Apr-09 19:59N 54°33' E 018°30'0 0.0
2018-Apr-09 19:29N 54°33' E 018°30'0 0.0
2018-Apr-09 18:59N 54°33' E 018°30'0 0.0
2018-Apr-09 18:29N 54°33' E 018°30'0 0.0
2018-Apr-09 17:59N 54°33' E 018°30'0 0.0
2018-Apr-09 17:29N 54°33' E 018°30'0 0.0
2018-Apr-09 17:00N 54°33' E 018°30'2 3.5
2018-Apr-09 16:30N 54°32' E 018°33'4 8.2
2018-Apr-09 16:00N 54°32' E 018°40'3 7.0
2018-Apr-09 15:30N 54°32' E 018°46'3 6.8
2018-Apr-09 15:00N 54°34' E 018°51'4 7.0
2018-Apr-09 14:30N 54°37' E 018°54'4 7.2
2018-Apr-09 14:00N 54°41' E 018°57'4 8.9
2018-Apr-09 13:30N 54°45' E 019°00'612.4
2018-Apr-09 13:00N 54°48' E 018°51'612.5
2018-Apr-09 12:30N 54°51' E 018°42'612.7
2018-Apr-09 12:00N 54°54' E 018°32'612.2
2018-Apr-09 11:30N 54°54' E 018°21'  
Track history (hours):
 
Tides and Currents Weather Stations Pressure Air Temp Water Temp Dewpoint Dewpoint Depression Visibility Wind Speed Wind Dir Waves Ship Positions

Autostar

Last reported at 2018-Apr-19 11:29 UTC. Time now 2018-Apr-19 11:50 UTC.
Position N 51°20' E 003°13'.

Length 140 m; draft 6.3 m.

Type: Cargo ship. MMSI: 255801540.

Date/timePositionNaut miles runAvg speedWind from/ knotsBaromVisibWave heightAir tempDewpointWater temp
2018-Apr-19 11:29N 51°20' E 003°13'0 0.0
2018-Apr-19 10:59N 51°20' E 003°13'0 0.0
2018-Apr-19 10:29N 51°20' E 003°13'0 0.0
2018-Apr-19 09:59N 51°20' E 003°13'0 0.0
2018-Apr-19 09:29N 51°20' E 003°13'0 0.0
2018-Apr-19 08:59N 51°20' E 003°13'0 0.0
2018-Apr-19 08:29N 51°20' E 003°13'0 0.0
2018-Apr-19 07:59N 51°20' E 003°13'0 0.0
2018-Apr-19 07:29N 51°20' E 003°13'0 0.0
2018-Apr-19 06:59N 51°20' E 003°13'0 0.0
2018-Apr-19 06:29N 51°20' E 003°13'0 0.0
2018-Apr-19 05:59N 51°20' E 003°13'0 0.0
2018-Apr-19 05:29N 51°20' E 003°13'0 0.0
2018-Apr-19 04:58N 51°20' E 003°13'0 0.0
2018-Apr-19 04:28N 51°20' E 003°13'0 0.0
2018-Apr-19 03:58N 51°20' E 003°13'0 0.0
2018-Apr-19 03:28N 51°20' E 003°13'0 0.0
2018-Apr-19 02:58N 51°20' E 003°13'0 0.0
2018-Apr-19 02:28N 51°20' E 003°13'0 0.0
2018-Apr-19 01:59N 51°20' E 003°13'0 0.0
2018-Apr-19 01:28N 51°20' E 003°13'0 0.0
2018-Apr-19 00:58N 51°20' E 003°13'0 0.0
2018-Apr-19 00:28N 51°20' E 003°13'0 0.0
2018-Apr-18 23:58N 51°19' E 003°13'0 0.0
2018-Apr-18 23:28N 51°20' E 003°13'0 0.0
2018-Apr-18 22:58N 51°20' E 003°13'0 0.0
2018-Apr-18 22:28N 51°20' E 003°13'0 0.0
2018-Apr-18 21:58N 51°20' E 003°13'0 0.0
2018-Apr-18 21:28N 51°20' E 003°13'0 0.0
2018-Apr-18 20:58N 51°20' E 003°13'0 0.0
2018-Apr-18 20:28N 51°20' E 003°13'0 0.0
2018-Apr-18 19:58N 51°20' E 003°13'0 0.0
2018-Apr-18 19:28N 51°20' E 003°13'0 0.0
2018-Apr-18 18:58N 51°20' E 003°13'0 0.0
2018-Apr-18 18:28N 51°20' E 003°13'0 0.0
2018-Apr-18 17:58N 51°20' E 003°13'0 0.0
2018-Apr-18 17:28N 51°20' E 003°13'0 0.0
2018-Apr-18 16:58N 51°20' E 003°13'0 0.0
2018-Apr-18 16:28N 51°20' E 003°13'0 0.0
2018-Apr-18 15:58N 51°20' E 003°13'0 0.0
2018-Apr-18 15:28N 51°20' E 003°13'0 0.3
2018-Apr-18 14:58N 51°19' E 003°13'0 0.1
2018-Apr-18 14:28N 51°19' E 003°13'0 0.0
2018-Apr-18 13:58N 51°19' E 003°13'0 0.0
2018-Apr-18 13:28N 51°19' E 003°13'0 0.0
2018-Apr-18 12:58N 51°19' E 003°13'0 0.0
2018-Apr-18 12:28N 51°19' E 003°13'0 0.0
2018-Apr-18 11:58N 51°19' E 003°13'0 0.0
2018-Apr-18 11:28N 51°19' E 003°13'0 0.0
2018-Apr-18 10:58N 51°19' E 003°13'0 0.0
2018-Apr-18 10:28N 51°19' E 003°13'0 0.0
2018-Apr-18 09:58N 51°19' E 003°13'0 0.0
2018-Apr-18 09:28N 51°19' E 003°13'0 0.0
2018-Apr-18 08:58N 51°19' E 003°13'0 0.0
2018-Apr-18 08:28N 51°19' E 003°13'0 0.0
2018-Apr-18 07:58N 51°19' E 003°13'0 0.0
2018-Apr-18 07:28N 51°19' E 003°13'0 0.0
2018-Apr-18 06:58N 51°19' E 003°13'0 0.0
2018-Apr-18 06:28N 51°19' E 003°13'0 0.0
2018-Apr-18 05:58N 51°19' E 003°13'0 0.0
2018-Apr-18 05:31N 51°19' E 003°13'1 1.6
2018-Apr-18 05:01N 51°20' E 003°13'1 1.7
2018-Apr-18 04:30N 51°21' E 003°12'815.3
2018-Apr-18 04:00N 51°25' E 003°02'916.1
2018-Apr-18 03:26N 51°30' E 002°50'714.0
2018-Apr-18 02:56N 51°35' E 002°42'511.2
2018-Apr-18 02:29N 51°40' E 002°39'4 8.6
2018-Apr-18 01:59N 51°44' E 002°38'5 8.7
2018-Apr-18 01:28N 51°49' E 002°36'12910.3
2018-Apr-17 12:58N 53°30' E 004°46'511.8
2018-Apr-17 12:30N 53°32' E 004°55'611.1
2018-Apr-17 12:00N 53°34' E 005°03'10010.8
2018-Apr-17 02:45N 53°53' E 007°49'413.1
2018-Apr-17 02:27N 53°52' E 007°56'920.7
2018-Apr-17 02:00N 53°47' E 008°09'1020.5
2018-Apr-17 01:30N 53°41' E 008°22'816.2
2018-Apr-17 01:00N 53°35' E 008°32'2 3.6
2018-Apr-17 00:30N 53°33' E 008°34'0 0.4
2018-Apr-16 23:59N 53°34' E 008°33'1 2.2
2018-Apr-16 23:29N 53°35' E 008°33'0 0.0
2018-Apr-16 22:59N 53°35' E 008°33'0 0.0
2018-Apr-16 22:29N 53°35' E 008°33'0 0.0
2018-Apr-16 21:59N 53°35' E 008°33'0 0.0
2018-Apr-16 21:29N 53°35' E 008°33'0 0.0
2018-Apr-16 20:59N 53°35' E 008°33'0 0.0
2018-Apr-16 20:29N 53°35' E 008°33'0 0.0
2018-Apr-16 19:59N 53°35' E 008°33'0 0.0
2018-Apr-16 19:29N 53°35' E 008°33'0 0.0
2018-Apr-16 18:59N 53°35' E 008°33'0 0.0
2018-Apr-16 18:29N 53°35' E 008°33'0 0.0
2018-Apr-16 17:59N 53°35' E 008°33'0 0.0
2018-Apr-16 17:29N 53°35' E 008°33'0 0.0
2018-Apr-16 16:59N 53°35' E 008°33'0 0.0
2018-Apr-16 16:29N 53°35' E 008°33'0 0.0
2018-Apr-16 15:59N 53°35' E 008°33'0 0.0
2018-Apr-16 15:29N 53°35' E 008°33'0 0.0
2018-Apr-16 14:59N 53°35' E 008°33'0 0.0
2018-Apr-16 14:29N 53°35' E 008°33'0 0.0
2018-Apr-16 13:59N 53°35' E 008°33'0 0.0
2018-Apr-16 13:29N 53°35' E 008°33'0 0.0
2018-Apr-16 12:59N 53°35' E 008°33'0 0.0
2018-Apr-16 12:29N 53°35' E 008°33'0 0.0
2018-Apr-16 11:59N 53°35' E 008°33'0 0.0
2018-Apr-16 11:29N 53°35' E 008°33'0 0.0
2018-Apr-16 10:59N 53°35' E 008°33'0 0.0
2018-Apr-16 10:29N 53°35' E 008°33'0 0.0
2018-Apr-16 09:59N 53°35' E 008°33'1 1.2
2018-Apr-16 09:30N 53°34' E 008°33'0 0.3
2018-Apr-16 09:00N 53°34' E 008°33'4 7.8
2018-Apr-16 08:30N 53°37' E 008°29'1019.5
2018-Apr-16 08:00N 53°43' E 008°16'1020.2
2018-Apr-16 07:30N 53°50' E 008°04'917.4
2018-Apr-16 06:59N 53°52' E 007°49'1516.1
2018-Apr-16 06:02N 54°04' E 007°32'016.8
2018-Apr-16 06:00N 54°04' E 007°32'4616.2
2018-Apr-16 03:12N 54°50' E 007°23'316.1
2018-Apr-16 03:00N 54°53' E 007°23'816.1
2018-Apr-16 02:30N 55°01' E 007°22'816.0
2018-Apr-16 02:01N 55°09' E 007°22'816.0
2018-Apr-16 01:30N 55°17' E 007°22'816.1
2018-Apr-16 01:01N 55°25' E 007°21'816.3
2018-Apr-16 00:30N 55°33' E 007°21'816.4
2018-Apr-16 00:00N 55°41' E 007°23'816.7
2018-Apr-15 23:30N 55°49' E 007°27'16016.0
2018-Apr-15 13:31N 57°50' E 010°38'017.9
2018-Apr-15 13:30N 57°50' E 010°39'917.9
2018-Apr-15 13:01N 57°46' E 010°54'918.9
2018-Apr-15 12:30N 57°39' E 011°06'919.0
2018-Apr-15 12:00N 57°32' E 011°19'918.6
2018-Apr-15 11:30N 57°25' E 011°29'918.9
2018-Apr-15 11:01N 57°16' E 011°35'1019.1
2018-Apr-15 10:30N 57°07' E 011°41'6317.6
2018-Apr-15 06:55N 56°09' E 012°28'818.6
2018-Apr-15 06:30N 56°04' E 012°38'816.3
2018-Apr-15 06:00N 55°57' E 012°44'917.7
2018-Apr-15 05:31N 55°48' E 012°43'816.5
2018-Apr-15 05:01N 55°40' E 012°42'612.6
2018-Apr-15 04:30N 55°33' E 012°42'713.9
2018-Apr-15 04:00N 55°26' E 012°42'815.5
2018-Apr-15 03:30N 55°19' E 012°41'816.2
2018-Apr-15 03:00N 55°16' E 012°54'917.8
2018-Apr-15 02:30N 55°15' E 013°09'2419.2
2018-Apr-15 01:17N 55°13' E 013°51'519.0
2018-Apr-15 01:00N 55°13' E 013°59'1019.0
2018-Apr-15 00:29N 55°13' E 014°17'918.9
2018-Apr-15 00:00N 55°20' E 014°27'918.4
2018-Apr-14 23:30N 55°27' E 014°37'1118.8
2018-Apr-14 22:55N 55°32' E 014°54'818.9
2018-Apr-14 22:29N 55°36' E 015°07'918.9
2018-Apr-14 22:00N 55°41' E 015°21'919.0
2018-Apr-14 21:30N 55°46' E 015°35'1019.0
2018-Apr-14 21:01N 55°51' E 015°50'1019.0
2018-Apr-14 20:30N 55°55' E 016°04'919.0
2018-Apr-14 20:01N 56°00' E 016°19'1018.9
2018-Apr-14 19:30N 56°05' E 016°34'917.9
2018-Apr-14 19:00N 56°11' E 016°45'1018.9
2018-Apr-14 18:30N 56°20' E 016°52'15319.0
2018-Apr-14 10:26N 58°38' E 018°55'2118.8
2018-Apr-14 09:18N 58°56' E 019°16'718.8
2018-Apr-14 08:55N 59°03' E 019°23'918.6
2018-Apr-14 08:26N 59°10' E 019°32'819.2
2018-Apr-14 08:00N 59°17' E 019°41'1019.4
2018-Apr-14 07:31N 59°26' E 019°51'918.6
2018-Apr-14 07:01N 59°34' E 019°57'918.2
2018-Apr-14 06:29N 59°42' E 019°47'918.9
2018-Apr-14 06:00N 59°49' E 019°36'918.8
2018-Apr-14 05:30N 59°56' E 019°23'918.9
2018-Apr-14 05:00N 60°03' E 019°11'918.6
2018-Apr-14 04:30N 60°11' E 019°01'1019.0
2018-Apr-14 04:00N 60°21' E 018°60'1116.5
2018-Apr-14 03:19N 60°32' E 019°06'819.1
2018-Apr-14 02:54N 60°35' E 019°20'73 3.4
2018-Apr-13 05:17N 60°18' E 021°45'618.2
2018-Apr-13 04:58N 60°12' E 021°43'612.5
2018-Apr-13 04:30N 60°06' E 021°41'918.0
2018-Apr-13 04:00N 59°58' E 021°41'918.8
2018-Apr-13 03:30N 59°52' E 021°26'815.1
2018-Apr-13 03:00N 59°44' E 021°21'612.8
2018-Apr-13 02:30N 59°38' E 021°22'714.7
2018-Apr-13 02:00N 59°36' E 021°36'715.0
2018-Apr-13 01:30N 59°34' E 021°50'815.4
2018-Apr-13 00:58N 59°31' E 022°06'715.9
2018-Apr-13 00:30N 59°29' E 022°20'815.9
2018-Apr-13 00:00N 59°31' E 022°35'815.9
2018-Apr-12 23:30N 59°33' E 022°50'816.0
2018-Apr-12 23:00N 59°35' E 023°05'816.5
2018-Apr-12 22:30N 59°37' E 023°21'1516.8
2018-Apr-12 21:37N 59°42' E 023°49'216.9
2018-Apr-12 21:29N 59°43' E 023°54'1316.8
2018-Apr-12 20:42N 59°46' E 024°18'316.7
2018-Apr-12 20:30N 59°47' E 024°25'816.5
2018-Apr-12 20:00N 59°49' E 024°41'816.6
2018-Apr-12 19:31N 59°50' E 024°57'816.5
2018-Apr-12 19:00N 59°52' E 025°13'816.5
2018-Apr-12 18:30N 59°53' E 025°29'1016.3
2018-Apr-12 17:54N 59°55' E 025°48'1216.4
2018-Apr-12 17:10N 59°59' E 026°12'216.2
2018-Apr-12 17:01N 59°59' E 026°17'816.4
2018-Apr-12 16:31N 60°01' E 026°33'816.3
2018-Apr-12 16:00N 60°00' E 026°49'816.0
2018-Apr-12 15:31N 59°60' E 027°05'816.1
2018-Apr-12 15:01N 60°04' E 027°19'816.3
2018-Apr-12 14:31N 60°08' E 027°33'816.1
2018-Apr-12 14:01N 60°12' E 027°47'816.4
2018-Apr-12 13:31N 60°10' E 028°03'816.3
2018-Apr-12 13:00N 60°07' E 028°18'815.9
2018-Apr-12 12:31N 60°03' E 028°32'915.7
2018-Apr-12 11:55N 60°03' E 028°51'716.0
2018-Apr-12 11:30N 60°03' E 029°04'1813.1
2018-Apr-12 10:08N 59°60' E 029°39'510.5
2018-Apr-12 09:41N 59°58' E 029°48'210.5
2018-Apr-12 09:29N 59°57' E 029°51'510.9
2018-Apr-12 09:00N 59°55' E 030°01'5 9.3
2018-Apr-12 08:30N 59°53' E 030°10'2 4.3
2018-Apr-12 08:00N 59°53' E 030°14'0 0.0
2018-Apr-12 07:29N 59°53' E 030°14'0 0.0
2018-Apr-12 06:59N 59°53' E 030°14'0 0.0
2018-Apr-12 06:29N 59°53' E 030°14'0 0.0
2018-Apr-12 05:59N 59°53' E 030°14'0 0.0
2018-Apr-12 05:29N 59°53' E 030°14'0 0.0
2018-Apr-12 04:56N 59°53' E 030°14'0 0.0
2018-Apr-12 04:23N 59°53' E 030°14'0 0.0
2018-Apr-12 03:59N 59°53' E 030°14'0 0.0
2018-Apr-12 03:29N 59°53' E 030°14'0 0.0
2018-Apr-12 02:53N 59°53' E 030°14'0 0.0
2018-Apr-12 02:29N 59°53' E 030°14'0 0.0
2018-Apr-12 01:53N 59°53' E 030°14'0 0.0
2018-Apr-12 01:29N 59°53' E 030°14'0 0.0
2018-Apr-12 00:53N 59°53' E 030°14'0 0.3
2018-Apr-12 00:28N 59°54' E 030°14'0 0.0
2018-Apr-12 00:00N 59°54' E 030°14'0 0.0
2018-Apr-11 23:31N 59°54' E 030°14'0 0.0
2018-Apr-11 23:00N 59°54' E 030°14'0 0.0
2018-Apr-11 22:30N 59°54' E 030°14'0 0.0
2018-Apr-11 22:01N 59°54' E 030°14'0 0.0
2018-Apr-11 21:31N 59°54' E 030°14'0 0.0
2018-Apr-11 20:59N 59°54' E 030°14'0 0.0
2018-Apr-11 20:29N 59°54' E 030°14'0 0.0
2018-Apr-11 19:59N 59°54' E 030°14'0 0.0
2018-Apr-11 19:31N 59°54' E 030°14'0 0.0
2018-Apr-11 19:00N 59°54' E 030°14'0 0.0
2018-Apr-11 18:31N 59°54' E 030°14'0 0.0
2018-Apr-11 18:00N 59°54' E 030°14'0 0.0
2018-Apr-11 17:30N 59°54' E 030°14'0 0.0
2018-Apr-11 17:00N 59°54' E 030°14'0 0.0
2018-Apr-11 16:30N 59°54' E 030°14'0 0.0
2018-Apr-11 16:00N 59°54' E 030°14'0 0.0
2018-Apr-11 15:31N 59°54' E 030°14'1 1.5
2018-Apr-11 15:00N 59°53' E 030°13'3 6.4
2018-Apr-11 14:30N 59°54' E 030°07'5 9.6
2018-Apr-11 14:00N 59°56' E 029°58'611.1
2018-Apr-11 13:31N 59°58' E 029°47'610.1
2018-Apr-11 12:55N 60°00' E 029°36'22 7.9
2018-Apr-11 10:07N 60°02' E 028°52'316.9
2018-Apr-11 09:56N 60°02' E 028°46'717.3
2018-Apr-11 09:30N 60°02' E 028°31'816.8
2018-Apr-11 09:01N 60°06' E 028°17'917.3
2018-Apr-11 08:31N 60°09' E 028°00'816.6
2018-Apr-11 08:00N 60°09' E 027°43'917.8
2018-Apr-11 07:31N 60°05' E 027°28'917.9
2018-Apr-11 07:00N 60°00' E 027°13'916.8
2018-Apr-11 06:29N 59°58' E 026°56'918.0
2018-Apr-11 06:00N 59°60' E 026°39'714.9
2018-Apr-11 05:31N 60°02' E 026°25'816.9
2018-Apr-11 05:01N 60°11' E 026°22'816.4
2018-Apr-11 04:30N 60°17' E 026°32'1019.2
2018-Apr-11 04:00N 60°23' E 026°48'714.6
2018-Apr-11 03:30N 60°28' E 026°58'1 2.4
2018-Apr-11 03:01N 60°29' E 026°57'4 8.8
2018-Apr-11 02:31N 60°25' E 026°55'918.2
2018-Apr-11 02:00N 60°21' E 026°38'917.6
2018-Apr-11 01:31N 60°14' E 026°26'816.7
2018-Apr-11 01:00N 60°08' E 026°16'1019.4
2018-Apr-11 00:30N 60°00' E 026°03'2518.6
2018-Apr-10 23:10N 59°49' E 025°19'319.7
2018-Apr-10 23:00N 59°48' E 025°12'919.4
2018-Apr-10 22:30N 59°46' E 024°54'1019.4
2018-Apr-10 22:01N 59°44' E 024°35'1019.3
2018-Apr-10 21:30N 59°42' E 024°17'1119.4
2018-Apr-10 20:57N 59°39' E 023°57'919.7
2018-Apr-10 20:30N 59°36' E 023°40'1019.8
2018-Apr-10 20:00N 59°33' E 023°21'1019.6
2018-Apr-10 19:30N 59°30' E 023°03'30018.3
2018-Apr-10 03:06N 54°60' E 019°02'319.3
2018-Apr-10 02:58N 54°57' E 019°02'919.0
2018-Apr-10 02:30N 54°48' E 018°60'1019.2
2018-Apr-10 02:01N 54°39' E 018°57'918.4
2018-Apr-10 01:31N 54°32' E 018°47'815.2
2018-Apr-10 01:00N 54°32' E 018°33'2 3.8
2018-Apr-10 00:30N 54°33' E 018°30'0 0.0
2018-Apr-10 00:00N 54°33' E 018°30'0 0.0
2018-Apr-09 23:30N 54°33' E 018°30'0 0.0
2018-Apr-09 23:00N 54°33' E 018°30'0 0.0
2018-Apr-09 22:30N 54°33' E 018°30'0 0.0
2018-Apr-09 22:00N 54°33' E 018°30'0 0.0
2018-Apr-09 21:30N 54°33' E 018°30'0 0.0
2018-Apr-09 21:00N 54°33' E 018°30'0 0.0
2018-Apr-09 20:30N 54°33' E 018°30'0 0.0
2018-Apr-09 19:59N 54°33' E 018°30'0 0.0
2018-Apr-09 19:29N 54°33' E 018°30'0 0.0
2018-Apr-09 18:59N 54°33' E 018°30'0 0.0
2018-Apr-09 18:29N 54°33' E 018°30'0 0.0
2018-Apr-09 17:59N 54°33' E 018°30'0 0.0
2018-Apr-09 17:29N 54°33' E 018°30'0 0.0
2018-Apr-09 17:00N 54°33' E 018°30'2 3.5
2018-Apr-09 16:30N 54°32' E 018°33'4 8.2
2018-Apr-09 16:00N 54°32' E 018°40'3 7.0
2018-Apr-09 15:30N 54°32' E 018°46'3 6.8
2018-Apr-09 15:00N 54°34' E 018°51'4 7.0
2018-Apr-09 14:30N 54°37' E 018°54'4 7.2
2018-Apr-09 14:00N 54°41' E 018°57'4 8.9
2018-Apr-09 13:30N 54°45' E 019°00'612.4
2018-Apr-09 13:00N 54°48' E 018°51'612.5
2018-Apr-09 12:30N 54°51' E 018°42'612.7
2018-Apr-09 12:00N 54°54' E 018°32'612.2
2018-Apr-09 11:30N 54°54' E 018°21'  

Dump ship's entire track history